createdAt,value
2023-02-04T00:01:34.472Z,100148.67
2023-02-04T00:04:02.777Z,100152.54
2023-02-04T00:06:31.044Z,100148.36
2023-02-04T00:08:59.340Z,100148.35
2023-02-04T00:11:27.853Z,100145.93
2023-02-04T00:13:56.118Z,100143.15
2023-02-04T00:16:24.508Z,100143.88
2023-02-04T00:18:53.009Z,100146.98
2023-02-04T00:21:21.333Z,100146.98
2023-02-04T00:23:52.473Z,100143.55
2023-02-04T00:26:20.719Z,100141.92
2023-02-04T00:28:49.020Z,100140.75
2023-02-04T00:31:18.353Z,100141.83
2023-02-04T00:33:46.823Z,100143.97
2023-02-04T00:36:14.924Z,100146.66
2023-02-04T00:38:43.337Z,100145.75
2023-02-04T00:41:12.179Z,100149.14
2023-02-04T00:43:40.872Z,100154.27
2023-02-04T00:46:09.145Z,100150.28
2023-02-04T00:48:38.343Z,100149.48
2023-02-04T00:51:06.550Z,100150.40
2023-02-04T00:53:35.684Z,100153.08
2023-02-04T00:56:05.751Z,100153.89
2023-02-04T00:58:34.894Z,100150.97
2023-02-04T01:01:04.783Z,100147.60
2023-02-04T01:03:33.336Z,100147.13
2023-02-04T01:06:01.810Z,100145.27
2023-02-04T01:08:31.753Z,100146.77
2023-02-04T01:11:00.287Z,100146.48
2023-02-04T01:13:29.048Z,100143.61
2023-02-04T01:15:57.223Z,100143.57
2023-02-04T01:18:25.532Z,100144.25
2023-02-04T01:20:53.915Z,100142.64
2023-02-04T01:23:22.239Z,100147.69
2023-02-04T01:25:51.785Z,100144.33
2023-02-04T01:28:20.099Z,100146.60
2023-02-04T01:30:48.447Z,100143.54
2023-02-04T01:33:20.488Z,100148.39
2023-02-04T01:35:48.710Z,100149.16
2023-02-04T01:38:17.088Z,100146.77
2023-02-04T01:40:45.658Z,100148.12
2023-02-04T01:43:14.179Z,100146.51
2023-02-04T01:45:42.542Z,100148.48
2023-02-04T01:48:12.855Z,100149.46
2023-02-04T01:50:41.129Z,100145.41
2023-02-04T01:53:09.526Z,100143.76
2023-02-04T01:55:37.867Z,100142.21
2023-02-04T01:58:10.830Z,100138.17
2023-02-04T02:00:39.799Z,100139.80
2023-02-04T02:03:12.272Z,100138.73
2023-02-04T02:05:45.596Z,100136.90
2023-02-04T02:08:14.193Z,100136.99
2023-02-04T02:10:44.437Z,100135.02
2023-02-04T02:13:16.858Z,100139.12
2023-02-04T02:15:45.395Z,100136.13
2023-02-04T02:18:14.587Z,100134.11
2023-02-04T02:20:43.365Z,100132.45
2023-02-04T02:23:45.181Z,100134.19
2023-02-04T02:26:14.313Z,100135.56
2023-02-04T02:28:42.704Z,100138.46
2023-02-04T02:31:11.477Z,100137.73
2023-02-04T02:33:40.357Z,100137.71
2023-02-04T02:36:08.557Z,100141.11
2023-02-04T02:38:36.893Z,100139.32
2023-02-04T02:41:05.586Z,100139.73
2023-02-04T02:43:35.027Z,100141.30
2023-02-04T02:46:03.225Z,100142.13
2023-02-04T02:48:32.867Z,100139.40
2023-02-04T02:51:01.130Z,100142.08
2023-02-04T02:53:29.763Z,100143.44
2023-02-04T02:55:58.509Z,100146.09
2023-02-04T02:58:29.780Z,100146.93
2023-02-04T03:00:58.087Z,100145.91
2023-02-04T03:03:28.226Z,100145.81
2023-02-04T03:05:59.554Z,100142.67
2023-02-04T03:08:27.765Z,100144.29
2023-02-04T03:10:58.400Z,100142.00
2023-02-04T03:13:28.687Z,100143.92
2023-02-04T03:16:01.854Z,100148.24
2023-02-04T03:18:31.728Z,100149.56
2023-02-04T03:20:59.993Z,100149.84
2023-02-04T03:23:28.207Z,100151.61
2023-02-04T03:25:56.468Z,100149.30
2023-02-04T03:28:25.419Z,100153.03
2023-02-04T03:30:56.489Z,100153.25
2023-02-04T03:33:29.273Z,100160.70
2023-02-04T03:35:58.477Z,100162.63
2023-02-04T03:38:27.136Z,100160.19
2023-02-04T03:40:55.332Z,100160.38
2023-02-04T03:43:23.727Z,100161.55
2023-02-04T03:45:52.069Z,100158.53
2023-02-04T03:48:20.960Z,100159.40
2023-02-04T03:50:49.204Z,100161.39
2023-02-04T03:53:17.891Z,100162.88
2023-02-04T03:55:48.087Z,100166.30
2023-02-04T03:58:17.077Z,100167.88
2023-02-04T04:00:45.489Z,100164.65
2023-02-04T04:03:13.897Z,100167.95
2023-02-04T04:05:42.326Z,100161.61
2023-02-04T04:08:10.589Z,100163.52
2023-02-04T04:10:41.119Z,100162.04
2023-02-04T04:13:13.992Z,100164.71
2023-02-04T04:15:42.751Z,100164.35
2023-02-04T04:18:10.977Z,100164.62
2023-02-04T04:20:40.972Z,100164.75
2023-02-04T04:23:10.445Z,100164.98
2023-02-04T04:25:38.616Z,100167.99
2023-02-04T04:28:07.532Z,100166.09
2023-02-04T04:30:35.925Z,100168.46
2023-02-04T04:33:04.654Z,100171.46
2023-02-04T04:35:33.716Z,100173.95
2023-02-04T04:38:02.921Z,100172.34
2023-02-04T04:40:32.506Z,100173.63
2023-02-04T04:43:01.436Z,100172.77
2023-02-04T04:45:30.155Z,100177.60
2023-02-04T04:47:59.164Z,100181.35
2023-02-04T04:50:27.521Z,100183.48
2023-02-04T04:52:55.892Z,100184.80
2023-02-04T04:55:24.404Z,100186.26
2023-02-04T04:57:54.846Z,100188.40
2023-02-04T05:00:23.287Z,100189.40
2023-02-04T05:02:52.935Z,100190.13
2023-02-04T05:05:21.279Z,100188.06
2023-02-04T05:07:49.479Z,100193.23
2023-02-04T05:10:18.717Z,100196.85
2023-02-04T05:12:48.061Z,100199.23
2023-02-04T05:15:22.385Z,100203.30
2023-02-04T05:17:51.224Z,100209.44
2023-02-04T05:20:19.548Z,100213.08
2023-02-04T05:22:47.683Z,100219.77
2023-02-04T05:25:17.796Z,100225.89
2023-02-04T05:27:46.580Z,100227.77
2023-02-04T05:30:15.137Z,100230.65
2023-02-04T05:32:43.966Z,100234.98
2023-02-04T05:35:12.186Z,100237.87
2023-02-04T05:37:40.450Z,100237.86
2023-02-04T05:40:12.331Z,100243.27
2023-02-04T05:42:42.062Z,100246.70
2023-02-04T05:45:14.089Z,100247.88
2023-02-04T05:47:42.791Z,100256.69
2023-02-04T05:50:13.401Z,100258.30
2023-02-04T05:52:41.799Z,100258.36
2023-02-04T05:55:11.501Z,100265.76
2023-02-04T05:57:39.804Z,100270.56
2023-02-04T06:00:09.012Z,100272.45
2023-02-04T06:02:44.476Z,100272.14
2023-02-04T06:05:12.724Z,100274.17
2023-02-04T06:07:41.448Z,100278.91
2023-02-04T06:10:10.492Z,100279.55
2023-02-04T06:12:39.196Z,100287.20
2023-02-04T06:15:08.445Z,100285.31
2023-02-04T06:17:37.190Z,100290.50
2023-02-04T06:20:06.387Z,100288.67
2023-02-04T06:22:34.736Z,100287.77
2023-02-04T06:25:04.633Z,100288.63
2023-02-04T06:27:34.471Z,100291.96
2023-02-04T06:30:02.738Z,100292.25
2023-02-04T06:32:31.962Z,100291.19
2023-02-04T06:35:00.771Z,100294.38
2023-02-04T06:37:31.145Z,100298.29
2023-02-04T06:39:59.334Z,100300.02
2023-02-04T06:42:27.949Z,100303.08
2023-02-04T06:44:56.251Z,100307.83
2023-02-04T06:47:24.440Z,100309.36
2023-02-04T06:49:52.687Z,100312.17
2023-02-04T06:52:21.296Z,100316.13
2023-02-04T06:54:49.583Z,100316.56
2023-02-04T06:57:17.902Z,100320.19
2023-02-04T06:59:47.479Z,100321.63
2023-02-04T07:02:16.329Z,100325.25
2023-02-04T07:04:46.084Z,100327.64
2023-02-04T07:07:16.620Z,100330.21
2023-02-04T07:09:44.881Z,100336.34
2023-02-04T07:12:14.372Z,100336.04
2023-02-04T07:14:44.192Z,100340.33
2023-02-04T07:17:13.253Z,100341.54
2023-02-04T07:19:41.430Z,100342.16
2023-02-04T07:22:09.881Z,100341.41
2023-02-04T07:24:38.320Z,100341.96
2023-02-04T07:27:08.199Z,100344.90
2023-02-04T07:29:36.966Z,100349.18
2023-02-04T07:32:06.262Z,100349.33
2023-02-04T07:34:34.775Z,100350.08
2023-02-04T07:37:03.901Z,100347.15
2023-02-04T07:39:32.236Z,100348.59
2023-02-04T07:42:00.612Z,100351.20
2023-02-04T07:44:33.652Z,100347.45
2023-02-04T07:47:02.992Z,100351.15
2023-02-04T07:49:32.024Z,100351.52
2023-02-04T07:52:00.501Z,100350.33
2023-02-04T07:54:29.059Z,100355.56
2023-02-04T07:56:57.563Z,100356.12
2023-02-04T07:59:25.772Z,100357.74
2023-02-04T08:01:54.162Z,100358.15
2023-02-04T08:04:22.814Z,100359.28
2023-02-04T08:06:51.134Z,100355.45
2023-02-04T08:09:19.572Z,100356.23
2023-02-04T08:11:48.204Z,100358.83
2023-02-04T08:14:16.403Z,100358.00
2023-02-04T08:16:44.610Z,100365.64
2023-02-04T08:19:19.023Z,100370.48
2023-02-04T08:21:47.940Z,100368.11
2023-02-04T08:24:16.333Z,100366.23
2023-02-04T08:26:44.654Z,100370.21
2023-02-04T08:29:13.050Z,100370.02
2023-02-04T08:31:41.368Z,100373.36
2023-02-04T08:34:10.232Z,100374.95
2023-02-04T08:36:38.380Z,100375.92
2023-02-04T08:39:07.040Z,100383.05
2023-02-04T08:41:35.472Z,100384.42
2023-02-04T08:44:03.926Z,100381.89
2023-02-04T08:46:32.264Z,100388.77
2023-02-04T08:49:00.876Z,100385.39
2023-02-04T08:51:30.212Z,100386.56
2023-02-04T08:53:58.458Z,100384.00
2023-02-04T08:56:26.863Z,100387.52
2023-02-04T08:58:55.247Z,100394.50
2023-02-04T09:01:23.651Z,100394.00
2023-02-04T09:03:51.884Z,100394.65
2023-02-04T09:06:20.137Z,100398.27
2023-02-04T09:08:48.303Z,100396.77
2023-02-04T09:11:16.684Z,100400.00
2023-02-04T09:13:44.984Z,100398.75
2023-02-04T09:16:14.535Z,100399.44
2023-02-04T09:18:43.048Z,100400.02
2023-02-04T09:21:11.190Z,100398.80
2023-02-04T09:23:39.400Z,100398.54
2023-02-04T09:26:07.626Z,100395.27
2023-02-04T09:28:36.036Z,100395.61
2023-02-04T09:31:06.594Z,100395.23
2023-02-04T09:33:35.357Z,100395.98
2023-02-04T09:36:03.909Z,100394.63
2023-02-04T09:38:32.474Z,100391.55
2023-02-04T09:41:02.671Z,100393.67
2023-02-04T09:43:36.990Z,100394.09
2023-02-04T09:46:05.265Z,100398.45
2023-02-04T09:48:34.042Z,100402.73
2023-02-04T09:51:06.884Z,100400.55
2023-02-04T09:53:35.686Z,100399.48
2023-02-04T09:56:04.238Z,100399.02
2023-02-04T09:58:34.020Z,100399.21
2023-02-04T10:01:11.913Z,100402.97
2023-02-04T10:03:46.710Z,100403.81
2023-02-04T10:06:20.232Z,100411.45
2023-02-04T10:08:50.165Z,100410.98
2023-02-04T10:11:20.405Z,100416.82
2023-02-04T10:13:50.562Z,100417.70
2023-02-04T10:16:21.602Z,100417.62
2023-02-04T10:18:50.172Z,100417.88
2023-02-04T10:21:27.274Z,100418.08
2023-02-04T10:23:57.403Z,100422.96
2023-02-04T10:26:28.738Z,100426.38
2023-02-04T10:29:09.681Z,100430.20
2023-02-04T10:31:40.072Z,100435.87
2023-02-04T10:34:31.509Z,100438.77
2023-02-04T10:37:01.421Z,100443.56
2023-02-04T10:39:30.392Z,100446.58
2023-02-04T10:42:00.037Z,100446.88
2023-02-04T10:44:36.315Z,100454.81
2023-02-04T10:47:06.933Z,100458.43
2023-02-04T10:49:36.808Z,100463.75
2023-02-04T10:52:14.256Z,100463.74
2023-02-04T10:54:42.457Z,100468.00
2023-02-04T10:57:17.612Z,100466.67
2023-02-04T10:59:45.967Z,100470.46
2023-02-04T11:02:55.291Z,100469.95
2023-02-04T11:05:25.567Z,100477.67
2023-02-04T11:07:54.136Z,100483.80
2023-02-04T11:10:25.636Z,100494.27
2023-02-04T11:13:03.119Z,100490.48
2023-02-04T11:15:55.388Z,100497.55
2023-02-04T11:18:23.604Z,100493.73
2023-02-04T11:20:54.324Z,100496.30
2023-02-04T11:23:32.785Z,100500.66
2023-02-04T11:26:17.448Z,100503.34
2023-02-04T11:28:52.440Z,100510.30
2023-02-04T11:31:21.734Z,100508.63
2023-02-04T11:33:51.045Z,100511.63
2023-02-04T11:36:20.544Z,100511.08
2023-02-04T11:38:50.084Z,100513.36
2023-02-04T11:41:33.569Z,100513.52
2023-02-04T11:44:01.918Z,100515.03
2023-02-04T11:46:30.427Z,100513.73
2023-02-04T11:48:59.585Z,100516.27
2023-02-04T11:51:34.442Z,100517.48
2023-02-04T11:54:02.877Z,100520.69
2023-02-04T11:56:31.136Z,100527.59
2023-02-04T11:58:59.385Z,100532.05
2023-02-04T13:43:29.204Z,100620.68
2023-02-04T13:45:58.186Z,100623.95
2023-02-04T13:48:26.865Z,100630.44
2023-02-04T13:50:56.585Z,100637.41
2023-02-04T13:53:27.088Z,100636.73
2023-02-04T13:55:56.229Z,100641.10
2023-02-04T13:58:24.898Z,100643.20
2023-02-04T14:00:57.663Z,100646.36
2023-02-04T14:03:27.097Z,100652.71
2023-02-04T14:05:55.843Z,100654.29
2023-02-04T14:08:24.377Z,100659.78
2023-02-04T14:10:52.614Z,100658.32
2023-02-04T14:13:20.943Z,100666.77
2023-02-04T14:15:49.102Z,100664.14
2023-02-04T14:18:18.310Z,100660.38
2023-02-04T14:20:47.720Z,100667.42
2023-02-04T14:23:16.601Z,100672.54
2023-02-04T14:25:45.140Z,100670.89
2023-02-04T14:28:13.581Z,100674.84
2023-02-04T14:30:41.765Z,100683.23
2023-02-04T14:33:10.250Z,100685.96
2023-02-04T14:35:39.409Z,100687.79
2023-02-04T14:38:07.755Z,100692.88
2023-02-04T14:40:36.193Z,100693.49
2023-02-04T14:43:04.544Z,100697.36
2023-02-04T14:45:33.264Z,100697.53
2023-02-04T14:48:02.953Z,100696.11
2023-02-04T14:50:31.945Z,100697.42
2023-02-04T14:53:00.626Z,100701.45
2023-02-04T14:55:29.107Z,100698.93
2023-02-04T14:57:57.584Z,100700.49
2023-02-04T15:00:35.982Z,100708.64
2023-02-04T15:03:05.873Z,100712.15
2023-02-04T15:05:37.240Z,100715.70
2023-02-04T15:08:06.987Z,100722.30
2023-02-04T15:10:38.938Z,100729.69
2023-02-04T15:13:07.813Z,100735.30
2023-02-04T15:15:37.562Z,100733.43
2023-02-04T15:18:06.090Z,100743.47
2023-02-04T15:20:34.770Z,100740.83
2023-02-04T15:23:04.609Z,100746.35
2023-02-04T15:25:33.480Z,100752.02
2023-02-04T15:28:01.980Z,100750.66
2023-02-04T15:30:30.703Z,100754.77
2023-02-04T15:32:59.972Z,100760.48
2023-02-04T15:35:28.283Z,100767.36
2023-02-04T15:37:56.817Z,100768.02
2023-02-04T15:40:25.779Z,100771.95
2023-02-04T15:42:54.150Z,100777.38
2023-02-04T15:45:22.537Z,100783.09
2023-02-04T15:47:51.221Z,100783.73
2023-02-04T15:50:20.819Z,100778.95
2023-02-04T15:52:50.067Z,100782.33
2023-02-04T15:55:18.379Z,100781.61
2023-02-04T15:57:46.634Z,100788.48
2023-02-04T16:00:15.134Z,100793.96
2023-02-04T16:02:43.778Z,100800.20
2023-02-04T16:05:12.637Z,100801.59
2023-02-04T16:07:42.077Z,100809.04
2023-02-04T16:10:10.663Z,100804.95
2023-02-04T16:12:39.767Z,100808.96
2023-02-04T16:15:08.729Z,100808.03
2023-02-04T16:17:37.984Z,100814.69
2023-02-04T16:20:07.335Z,100818.05
2023-02-04T16:22:35.767Z,100823.16
2023-02-04T16:25:04.864Z,100825.58
2023-02-04T16:27:34.071Z,100824.29
2023-02-04T16:30:03.889Z,100824.73
2023-02-04T16:32:35.252Z,100828.27
2023-02-04T16:35:04.650Z,100828.48
2023-02-04T16:37:33.264Z,100829.08
2023-02-04T16:40:01.993Z,100827.90
2023-02-04T16:42:31.789Z,100827.54
2023-02-04T16:45:00.348Z,100831.30
2023-02-04T16:47:28.772Z,100831.65
2023-02-04T16:50:01.158Z,100831.81
2023-02-04T16:52:29.918Z,100833.77
2023-02-04T16:54:59.124Z,100833.45
2023-02-04T16:57:27.285Z,100836.23
2023-02-04T16:59:56.981Z,100834.19
2023-02-04T17:02:26.463Z,100836.02
2023-02-04T17:04:55.583Z,100839.02
2023-02-04T17:07:24.826Z,100841.59
2023-02-04T17:09:53.846Z,100841.55
2023-02-04T17:12:26.479Z,100843.35
2023-02-04T17:14:59.499Z,100847.22
2023-02-04T17:17:28.940Z,100846.41
2023-02-04T17:19:57.547Z,100845.17
2023-02-04T17:22:25.835Z,100849.35
2023-02-04T17:24:54.040Z,100852.43
2023-02-04T17:27:22.664Z,100853.23
2023-02-04T17:29:50.998Z,100857.06
2023-02-04T17:32:19.585Z,100858.86
2023-02-04T17:34:47.828Z,100862.58
2023-02-04T17:37:16.028Z,100862.68
2023-02-04T17:39:44.129Z,100865.17
2023-02-04T17:42:12.689Z,100865.95
2023-02-04T17:44:41.255Z,100868.09
2023-02-04T17:47:09.813Z,100869.54
2023-02-04T17:49:38.520Z,100871.48
2023-02-04T17:52:07.014Z,100874.80
2023-02-04T17:54:36.497Z,100878.11
2023-02-04T17:57:16.940Z,100882.20
2023-02-04T17:59:45.406Z,100884.79
2023-02-04T18:02:26.223Z,100890.71
2023-02-04T18:04:55.596Z,100892.15
2023-02-04T18:07:24.714Z,100898.13
2023-02-04T18:09:52.980Z,100902.65
2023-02-04T18:12:21.388Z,100901.61
2023-02-04T18:14:50.930Z,100900.88
2023-02-04T18:17:19.200Z,100905.48
2023-02-04T18:19:48.222Z,100902.64
2023-02-04T18:22:17.993Z,100906.65
2023-02-04T18:24:49.033Z,100909.25
2023-02-04T18:27:24.358Z,100912.66
2023-02-04T18:29:55.752Z,100912.48
2023-02-04T18:32:50.549Z,100923.27
2023-02-04T18:35:43.913Z,100921.67
2023-02-04T18:38:39.516Z,100926.30
2023-02-04T18:41:23.342Z,100929.17
2023-02-04T18:44:14.130Z,100932.88
2023-02-04T18:46:46.470Z,100932.31
2023-02-04T18:49:34.308Z,100936.80
2023-02-04T18:52:17.825Z,100936.42
2023-02-04T18:54:56.757Z,100937.93
2023-02-04T18:57:38.502Z,100943.39
2023-02-04T19:00:17.876Z,100940.04
2023-02-04T19:02:52.177Z,100938.59
2023-02-04T19:05:26.920Z,100937.52
2023-02-04T19:08:21.041Z,100947.86
2023-02-04T19:10:49.800Z,100946.23
2023-02-04T19:13:26.505Z,100951.15
2023-02-04T19:16:25.548Z,100950.05
2023-02-04T19:18:54.759Z,100954.92
2023-02-04T19:21:28.843Z,100955.26
2023-02-04T19:24:09.179Z,100957.50
2023-02-04T19:26:43.735Z,100960.73
2023-02-04T19:29:40.646Z,100961.21
2023-02-04T19:32:28.986Z,100959.27
2023-02-04T19:35:02.210Z,100956.13
2023-02-04T19:37:41.008Z,100961.25
2023-02-04T19:40:32.076Z,100961.90
2023-02-04T19:43:21.377Z,100967.13
2023-02-04T19:57:55.592Z,100972.21
2023-02-04T20:00:37.010Z,100970.37
2023-02-04T20:03:45.529Z,100972.50
2023-02-04T20:06:27.123Z,100972.59
2023-02-04T20:08:56.787Z,100977.67
2023-02-04T20:11:35.127Z,100981.23
2023-02-04T20:14:09.665Z,100981.56
2023-02-04T20:16:57.228Z,100990.83
2023-02-04T20:19:33.021Z,100988.39
2023-02-04T20:22:20.519Z,100980.92
2023-02-04T20:24:48.145Z,100986.75
2023-02-04T20:27:28.926Z,100988.73
2023-02-04T20:30:11.499Z,100989.27
2023-02-04T20:32:43.248Z,100990.56
2023-02-04T20:35:22.299Z,100992.73
2023-02-04T20:37:53.631Z,100991.70
2023-02-04T20:40:31.450Z,100997.34
2023-02-04T20:43:02.810Z,100993.54
2023-02-04T20:45:37.786Z,100989.16
2023-02-04T20:48:16.901Z,100997.29
2023-02-04T20:50:54.148Z,100998.75
2023-02-04T20:53:50.850Z,101002.71
2023-02-04T20:56:40.130Z,101007.89
2023-02-04T20:59:11.390Z,101005.68
2023-02-04T21:01:43.631Z,101012.38
2023-02-04T21:04:29.759Z,101011.73
2023-02-04T21:07:01.930Z,101015.56
2023-02-04T21:09:32.062Z,101019.25
2023-02-04T21:11:59.769Z,101020.45
2023-02-04T21:14:27.243Z,101023.58
2023-02-04T21:16:54.936Z,101024.80
2023-02-04T21:19:23.228Z,101025.77
2023-02-04T21:21:50.302Z,101023.50
2023-02-04T21:24:17.903Z,101023.16
2023-02-04T21:26:44.911Z,101024.76
2023-02-04T21:29:12.060Z,101026.69
2023-02-04T21:31:40.054Z,101028.96
2023-02-04T21:34:07.088Z,101030.27
2023-02-04T21:36:35.779Z,101034.48
2023-02-04T21:39:02.822Z,101042.40
2023-02-04T21:41:29.752Z,101033.63
2023-02-04T21:43:57.417Z,101037.05
2023-02-04T21:46:24.323Z,101032.70
2023-02-04T21:48:51.320Z,101036.04
2023-02-04T21:51:18.176Z,101043.30
2023-02-04T21:53:45.788Z,101034.30
2023-02-04T21:56:13.908Z,101037.63
2023-02-04T21:58:41.368Z,101041.05
2023-02-04T22:01:10.063Z,101045.48
2023-02-04T22:03:37.295Z,101044.60
2023-02-04T22:06:05.803Z,101046.77
2023-02-04T22:08:32.987Z,101043.02
2023-02-04T22:11:03.123Z,101042.30
2023-02-04T22:13:29.932Z,101047.39
2023-02-04T22:15:56.847Z,101046.94
2023-02-04T22:18:24.673Z,101046.02
2023-02-04T22:20:52.091Z,101044.98
2023-02-04T22:23:19.264Z,101045.90
2023-02-04T22:25:46.081Z,101044.98
2023-02-04T22:28:13.026Z,101044.24
2023-02-04T22:30:39.881Z,101044.84
2023-02-04T22:33:07.793Z,101048.88
2023-02-04T22:35:38.520Z,101052.71
2023-02-04T22:38:05.494Z,101053.27
2023-02-04T22:40:32.638Z,101051.59
2023-02-04T22:42:59.814Z,101054.80
2023-02-04T22:45:26.623Z,101054.52
2023-02-04T22:47:53.692Z,101052.45
2023-02-04T22:50:20.583Z,101055.73
2023-02-04T22:52:47.425Z,101059.95
2023-02-04T22:55:14.354Z,101061.45
2023-02-04T22:57:41.248Z,101062.03
2023-02-04T23:00:09.304Z,101059.28
2023-02-04T23:02:37.636Z,101062.81
2023-02-04T23:05:04.726Z,101058.65
2023-02-04T23:07:31.860Z,101058.55
2023-02-04T23:09:58.667Z,101060.23
2023-02-04T23:12:25.553Z,101056.83
2023-02-04T23:14:52.508Z,101060.27
2023-02-04T23:17:19.663Z,101054.64
2023-02-04T23:19:46.746Z,101056.70
2023-02-04T23:22:13.749Z,101061.35
2023-02-04T23:24:40.999Z,101061.36
2023-02-04T23:27:10.833Z,101064.33
2023-02-04T23:29:38.985Z,101059.89
2023-02-04T23:32:06.178Z,101061.08
2023-02-04T23:34:33.639Z,101059.89
2023-02-04T23:37:00.681Z,101065.60
2023-02-04T23:39:27.624Z,101060.38
2023-02-04T23:41:54.570Z,101061.52
2023-02-04T23:44:21.659Z,101065.87
2023-02-04T23:46:48.880Z,101066.95
2023-02-04T23:49:16.144Z,101072.96
2023-02-04T23:51:43.299Z,101073.98
2023-02-04T23:54:10.255Z,101075.81
2023-02-04T23:56:37.649Z,101075.52
2023-02-04T23:59:05.282Z,101075.98
